Time;durP1;ratioP1;P1;durP2;ratioP2;P2;SDS_P1;SDS_P2;PMS_P1;PMS_P2;Temp;Humidity;BMP_temperature;BMP_pressure;BME280_temperature;BME280_humidity;BME280_pressure;Samples;Min_cycle;Max_cycle;Signal;HPM_P1;HPM_P2
2021/04/24 00:00:22;;;;;;;14.23;10.10;;;3.90;83.50;;;;;;5054137;28;20194;-86
2021/04/24 00:02:47;;;;;;;19.53;10.53;;;3.90;83.60;;;;;;5055424;28;20699;-86
2021/04/24 00:05:27;;;;;;;18.93;10.30;;;3.90;83.30;;;;;;5054047;28;20260;-86
2021/04/24 00:07:58;;;;;;;14.97;9.80;;;3.80;83.50;;;;;;5055415;28;20169;-86
2021/04/24 00:10:26;;;;;;;18.43;9.63;;;3.70;83.90;;;;;;5055114;28;20332;-86
2021/04/24 00:12:52;;;;;;;16.50;9.87;;;3.70;83.60;;;;;;5055161;28;20170;-86
2021/04/24 00:15:18;;;;;;;27.03;11.63;;;3.70;84.40;;;;;;5055069;28;20187;-86
2021/04/24 00:17:45;;;;;;;17.27;10.37;;;3.80;84.80;;;;;;5053648;28;20203;-86
2021/04/24 00:20:14;;;;;;;19.77;10.67;;;3.90;85.80;;;;;;5053679;28;20204;-86
2021/04/24 00:22:41;;;;;;;16.13;9.73;;;3.90;85.60;;;;;;5053766;28;20616;-86
2021/04/24 00:25:07;;;;;;;17.37;11.37;;;3.90;85.30;;;;;;5053730;28;20644;-86
2021/04/24 00:27:33;;;;;;;17.90;10.27;;;3.80;85.10;;;;;;5053655;28;20237;-86
2021/04/24 00:29:59;;;;;;;22.57;11.27;;;3.70;85.40;;;;;;5055072;28;20198;-86
2021/04/24 00:32:25;;;;;;;23.57;10.90;;;3.70;85.40;;;;;;5055056;28;20217;-86
2021/04/24 00:34:50;;;;;;;22.80;11.40;;;3.70;85.60;;;;;;5053456;28;20187;-86
2021/04/24 00:37:16;;;;;;;20.27;10.60;;;3.50;85.80;;;;;;5053531;28;20671;-86
2021/04/24 00:39:42;;;;;;;19.23;11.47;;;3.40;85.80;;;;;;5053382;28;20218;-86
2021/04/24 00:42:07;;;;;;;19.27;12.17;;;3.40;86.30;;;;;;5054697;28;20178;-86
2021/04/24 00:44:33;;;;;;;19.53;11.07;;;3.30;86.50;;;;;;5053397;28;20188;-87
2021/04/24 00:46:59;;;;;;;21.40;11.77;;;3.30;86.70;;;;;;5054522;28;20220;-86
2021/04/24 00:49:24;;;;;;;21.93;10.43;;;3.30;87.10;;;;;;5053326;28;20200;-86
2021/04/24 00:51:50;;;;;;;22.30;10.77;;;3.50;86.80;;;;;;5054448;28;20638;-86
2021/04/24 00:54:15;;;;;;;26.07;10.77;;;3.50;86.50;;;;;;5053538;28;20326;-86
2021/04/24 00:56:42;;;;;;;21.93;9.33;;;3.50;86.60;;;;;;5054545;28;20187;-86
2021/04/24 00:59:08;;;;;;;22.83;9.33;;;3.50;86.40;;;;;;5053297;28;20670;-86
2021/04/24 01:01:34;;;;;;;14.97;8.90;;;3.50;86.50;;;;;;5053097;28;20173;-86
2021/04/24 01:04:00;;;;;;;16.50;8.80;;;3.50;86.40;;;;;;5054235;28;20168;-86
2021/04/24 01:06:26;;;;;;;20.80;9.37;;;3.60;86.30;;;;;;5053294;28;20183;-87
2021/04/24 01:08:52;;;;;;;15.57;9.73;;;3.70;86.00;;;;;;5052854;28;20187;-86
2021/04/24 01:11:17;;;;;;;21.30;9.00;;;3.70;85.90;;;;;;5053151;28;20184;-86
2021/04/24 01:13:43;;;;;;;20.23;9.30;;;3.60;86.50;;;;;;5054079;28;20550;-86
2021/04/24 01:16:09;;;;;;;17.23;8.57;;;3.50;87.20;;;;;;5052743;28;20179;-86
2021/04/24 01:18:34;;;;;;;21.27;8.80;;;3.50;87.50;;;;;;5052608;28;20199;-86
2021/04/24 01:21:04;;;;;;;19.00;9.70;;;3.50;87.70;;;;;;5053870;28;20189;-86
2021/04/24 01:23:29;;;;;;;16.97;8.40;;;3.40;87.80;;;;;;5052597;28;20189;-86
2021/04/24 01:25:57;;;;;;;14.90;8.30;;;3.50;87.90;;;;;;5053847;28;20653;-86
2021/04/24 01:28:22;;;;;;;15.60;8.40;;;3.50;88.00;;;;;;5052487;28;20190;-86
2021/04/24 01:30:48;;;;;;;20.97;7.97;;;3.50;88.00;;;;;;5053654;28;20195;-86
2021/04/24 01:33:15;;;;;;;18.87;8.37;;;3.40;88.00;;;;;;5052525;28;20340;-86
2021/04/24 01:35:42;;;;;;;21.37;8.27;;;3.40;88.20;;;;;;5053728;28;20202;-86
2021/04/24 01:38:08;;;;;;;16.20;8.27;;;3.50;88.40;;;;;;5052285;28;20213;-86
2021/04/24 01:40:35;;;;;;;19.20;8.40;;;3.50;88.60;;;;;;5053788;28;20201;-86
2021/04/24 01:43:06;;;;;;;18.63;8.17;;;3.60;88.90;;;;;;5053569;28;20165;-86
2021/04/24 01:45:32;;;;;;;17.63;8.23;;;3.50;89.00;;;;;;5053600;28;20160;-86
2021/04/24 01:47:57;;;;;;;17.90;8.63;;;3.60;88.80;;;;;;5053778;28;20181;-88
2021/04/24 01:50:31;;;;;;;14.30;7.20;;;3.60;88.50;;;;;;5053612;28;20209;-86
2021/04/24 01:52:58;;;;;;;15.40;8.67;;;3.60;88.50;;;;;;5052664;28;20173;-86
2021/04/24 01:55:27;;;;;;;14.03;7.20;;;3.50;88.80;;;;;;5053561;28;20201;-86
2021/04/24 01:57:54;;;;;;;16.53;7.70;;;3.40;89.10;;;;;;5052033;28;20256;-86
2021/04/24 02:00:27;;;;;;;12.97;7.67;;;3.40;89.20;;;;;;5052770;28;20194;-86
2021/04/24 02:02:54;;;;;;;19.27;7.90;;;3.40;89.20;;;;;;5053228;28;20171;-86
2021/04/24 02:05:21;;;;;;;14.63;7.37;;;3.40;89.10;;;;;;5053107;28;20181;-86
2021/04/24 02:07:58;;;;;;;20.97;8.53;;;3.40;89.00;;;;;;5053082;28;20186;-86
2021/04/24 02:10:26;;;;;;;19.53;7.80;;;3.40;88.80;;;;;;5053033;28;20678;-86
2021/04/24 02:12:52;;;;;;;21.77;8.77;;;3.30;88.90;;;;;;5052938;28;20177;-86
2021/04/24 02:15:18;;;;;;;17.93;8.77;;;3.30;89.10;;;;;;5051816;28;20180;-86
2021/04/24 02:17:44;;;;;;;21.77;8.90;;;3.40;89.00;;;;;;5051682;28;20554;-86
2021/04/24 02:20:11;;;;;;;17.53;8.73;;;3.40;89.30;;;;;;5051717;28;20213;-86
2021/04/24 02:22:36;;;;;;;18.17;8.23;;;3.50;89.20;;;;;;5051680;28;20173;-86
2021/04/24 02:25:04;;;;;;;16.27;7.77;;;3.40;89.20;;;;;;5051785;28;20188;-86
2021/04/24 02:27:31;;;;;;;17.40;8.30;;;3.40;88.80;;;;;;5051487;28;20183;-86
2021/04/24 02:29:56;;;;;;;22.23;8.23;;;3.40;88.40;;;;;;5052829;28;20194;-86
2021/04/24 02:32:26;;;;;;;19.33;8.00;;;3.40;88.90;;;;;;5051575;28;20193;-86
2021/04/24 02:34:52;;;;;;;20.43;7.10;;;3.40;89.40;;;;;;5052890;28;20197;-86
2021/04/24 02:37:19;;;;;;;15.53;7.50;;;3.40;89.40;;;;;;5052612;28;20198;-86
2021/04/24 02:39:47;;;;;;;17.23;7.97;;;3.40;89.60;;;;;;5051340;28;20219;-86
2021/04/24 02:42:18;;;;;;;16.13;7.93;;;3.40;89.90;;;;;;5052746;28;20189;-86
2021/04/24 02:44:44;;;;;;;21.93;8.23;;;3.40;89.90;;;;;;5052752;28;20624;-86
2021/04/24 02:47:10;;;;;;;13.73;7.70;;;3.40;89.90;;;;;;5052772;28;20287;-86
2021/04/24 02:49:36;;;;;;;23.60;9.00;;;3.40;89.80;;;;;;5051298;28;20670;-86
2021/04/24 02:52:03;;;;;;;12.93;8.13;;;3.40;89.70;;;;;;5051378;28;20283;-86
2021/04/24 02:54:29;;;;;;;18.20;8.57;;;3.40;89.60;;;;;;5052715;28;20218;-86
2021/04/24 02:56:55;;;;;;;14.97;8.00;;;3.30;89.70;;;;;;5051259;28;20707;-86
2021/04/24 02:59:21;;;;;;;16.60;7.30;;;3.30;89.90;;;;;;5051359;28;20224;-86
2021/04/24 03:01:47;;;;;;;16.40;8.57;;;3.30;89.80;;;;;;5051254;28;20263;-86
2021/04/24 03:04:14;;;;;;;21.80;7.90;;;3.30;89.60;;;;;;5051277;28;20216;-86
2021/04/24 03:06:41;;;;;;;15.57;7.77;;;3.40;89.40;;;;;;5052465;28;20172;-86
2021/04/24 03:09:06;;;;;;;13.57;7.60;;;3.50;89.30;;;;;;5051216;28;20206;-86
2021/04/24 03:11:32;;;;;;;19.97;7.63;;;3.50;89.30;;;;;;5051499;28;20178;-86
2021/04/24 03:13:58;;;;;;;21.70;7.93;;;3.60;89.30;;;;;;5055578;28;20201;-86
2021/04/24 03:16:24;;;;;;;21.00;7.53;;;3.70;89.10;;;;;;5055013;28;20588;-86
2021/04/24 03:18:50;;;;;;;17.70;8.00;;;3.70;89.00;;;;;;5056036;28;20227;-86
2021/04/24 03:21:16;;;;;;;19.60;7.60;;;3.80;88.90;;;;;;5054931;28;20229;-86
2021/04/24 03:23:42;;;;;;;20.00;7.60;;;3.90;88.80;;;;;;5056772;28;20586;-86
2021/04/24 03:26:07;;;;;;;17.80;7.53;;;3.80;88.50;;;;;;5056316;28;20174;-86
2021/04/24 03:28:33;;;;;;;18.57;7.37;;;3.80;88.50;;;;;;5054706;28;20226;-86
2021/04/24 03:30:59;;;;;;;16.67;7.60;;;3.70;88.50;;;;;;5055956;28;20191;-86
2021/04/24 03:33:24;;;;;;;19.00;8.37;;;3.60;88.20;;;;;;5056127;28;20179;-86
2021/04/24 03:35:50;;;;;;;16.70;7.80;;;3.60;88.50;;;;;;5054728;28;20238;-86
2021/04/24 03:38:16;;;;;;;14.80;7.57;;;3.50;88.70;;;;;;5055817;28;20192;-87
2021/04/24 03:40:42;;;;;;;19.97;7.27;;;3.50;88.50;;;;;;5055685;28;20207;-86
2021/04/24 03:43:07;;;;;;;16.20;6.83;;;3.50;88.50;;;;;;5054548;28;20174;-86
2021/04/24 03:45:34;;;;;;;26.23;7.20;;;3.50;88.40;;;;;;5054472;28;20186;-86
2021/04/24 03:47:59;;;;;;;19.50;7.63;;;3.60;88.30;;;;;;5054528;28;20241;-86
2021/04/24 03:50:25;;;;;;;17.93;7.23;;;3.60;88.40;;;;;;5054353;28;20306;-86
2021/04/24 03:52:53;;;;;;;15.20;6.83;;;3.70;88.20;;;;;;5054345;28;20182;-86
2021/04/24 03:55:19;;;;;;;24.67;7.00;;;3.80;88.20;;;;;;5055643;28;20608;-86
2021/04/24 03:57:47;;;;;;;12.67;6.83;;;3.70;88.00;;;;;;5055415;28;20281;-86
2021/04/24 04:00:18;;;;;;;15.20;7.27;;;3.70;88.00;;;;;;5055418;28;20185;-86
2021/04/24 04:02:51;;;;;;;19.77;7.63;;;3.70;87.80;;;;;;5054200;28;20274;-86
2021/04/24 04:05:19;;;;;;;15.50;7.03;;;3.70;87.60;;;;;;5054149;28;20209;-86
2021/04/24 04:07:45;;;;;;;14.77;7.27;;;3.60;87.60;;;;;;5054100;28;20653;-86
2021/04/24 04:10:13;;;;;;;22.37;6.97;;;3.60;87.70;;;;;;5053991;28;20206;-86
2021/04/24 04:12:39;;;;;;;20.83;6.63;;;3.60;87.40;;;;;;5055179;28;20230;-86
2021/04/24 04:15:06;;;;;;;17.67;7.27;;;3.60;87.60;;;;;;5054032;28;20177;-86
2021/04/24 04:17:32;;;;;;;18.23;6.97;;;3.60;87.60;;;;;;5053809;28;20570;-86
2021/04/24 04:19:57;;;;;;;16.40;6.97;;;3.70;87.50;;;;;;5053945;28;20282;-86
2021/04/24 04:22:24;;;;;;;16.73;7.30;;;3.70;87.30;;;;;;5055059;28;20167;-86
2021/04/24 04:24:50;;;;;;;23.93;8.97;;;3.70;87.60;;;;;;5055068;28;20174;-86
2021/04/24 04:27:15;;;;;;;19.83;7.27;;;3.70;87.40;;;;;;5055021;28;20171;-86
2021/04/24 04:29:41;;;;;;;22.17;6.97;;;3.70;87.50;;;;;;5053638;28;20199;-86
2021/04/24 04:32:06;;;;;;;18.93;6.97;;;3.90;87.50;;;;;;5054880;28;20635;-86
2021/04/24 04:34:32;;;;;;;17.67;7.27;;;4.10;87.00;;;;;;5054925;28;20635;-87
2021/04/24 04:36:58;;;;;;;18.53;6.93;;;4.20;86.60;;;;;;5054721;28;20213;-87
2021/04/24 04:39:24;;;;;;;22.77;7.43;;;4.30;86.50;;;;;;5053333;28;20199;-87
2021/04/24 04:41:50;;;;;;;21.30;6.70;;;4.30;86.20;;;;;;5055043;28;20178;-86
2021/04/24 04:44:15;;;;;;;16.07;7.07;;;4.30;86.10;;;;;;5053403;28;20184;-87
2021/04/24 04:46:41;;;;;;;16.70;6.83;;;4.30;85.70;;;;;;5053533;28;20178;-86
2021/04/24 04:49:07;;;;;;;12.97;6.97;;;4.40;85.70;;;;;;5053203;28;20683;-86
2021/04/24 04:51:32;;;;;;;13.77;6.47;;;4.60;85.60;;;;;;5053229;28;20229;-86
2021/04/24 04:53:59;;;;;;;16.33;6.87;;;4.60;85.10;;;;;;5053343;28;20643;-86
2021/04/24 04:56:25;;;;;;;13.63;6.80;;;4.60;84.90;;;;;;5054408;28;20175;-86
2021/04/24 04:58:51;;;;;;;19.53;6.60;;;4.60;84.60;;;;;;5054241;28;20231;-86
2021/04/24 05:01:18;;;;;;;19.50;6.77;;;4.60;84.80;;;;;;5053139;28;20203;-86
2021/04/24 05:03:43;;;;;;;23.13;7.27;;;4.60;85.00;;;;;;5053214;28;20723;-86
2021/04/24 05:06:09;;;;;;;18.47;7.40;;;4.70;84.80;;;;;;5054277;28;20207;-86
2021/04/24 05:08:36;;;;;;;14.00;6.83;;;4.60;84.50;;;;;;5052956;28;20179;-87
2021/04/24 05:11:03;;;;;;;17.97;7.30;;;4.60;84.40;;;;;;5052925;28;20206;-87
2021/04/24 05:13:29;;;;;;;17.13;6.90;;;4.70;84.30;;;;;;5052897;28;20644;-86
2021/04/24 05:15:55;;;;;;;21.67;7.70;;;4.60;84.90;;;;;;5054400;28;20175;-87
2021/04/24 05:18:21;;;;;;;19.17;7.00;;;4.50;85.40;;;;;;5052545;28;20204;-86
2021/04/24 05:20:47;;;;;;;21.17;7.57;;;4.60;85.50;;;;;;5052564;28;20207;-85
2021/04/24 05:23:13;;;;;;;12.83;6.43;;;4.70;85.70;;;;;;5052701;28;20179;-86
2021/04/24 05:25:39;;;;;;;17.87;6.90;;;4.70;85.70;;;;;;5053928;28;20699;-86
2021/04/24 05:28:05;;;;;;;21.37;6.87;;;4.80;85.60;;;;;;5052704;28;20558;-87
2021/04/24 05:30:30;;;;;;;18.53;6.53;;;4.80;85.40;;;;;;5052813;28;20199;-86
2021/04/24 05:32:57;;;;;;;16.53;6.23;;;4.80;85.10;;;;;;5052623;28;20185;-86
2021/04/24 05:35:24;;;;;;;21.47;6.70;;;4.80;84.80;;;;;;5053130;28;20286;-87
2021/04/24 05:37:51;;;;;;;24.27;7.70;;;4.80;84.80;;;;;;5053873;28;20277;-87
2021/04/24 05:40:17;;;;;;;20.47;7.07;;;4.80;84.70;;;;;;5053726;28;20219;-86
2021/04/24 05:42:43;;;;;;;20.53;6.17;;;4.80;84.70;;;;;;5052359;28;20635;-86
2021/04/24 05:45:10;;;;;;;17.93;6.77;;;4.90;84.80;;;;;;5053526;28;20179;-86
2021/04/24 05:47:44;;;;;;;27.77;6.43;;;4.90;85.00;;;;;;5052525;28;20175;-86
2021/04/24 05:50:10;;;;;;;22.60;5.93;;;5.00;85.40;;;;;;5052212;28;20297;-86
2021/04/24 05:52:37;;;;;;;24.23;5.23;;;5.00;85.40;;;;;;5052084;28;20179;-86
2021/04/24 05:55:04;;;;;;;17.10;6.63;;;5.10;85.50;;;;;;5053352;28;20187;-86
2021/04/24 05:57:31;;;;;;;22.53;5.90;;;5.20;85.50;;;;;;5051975;28;20241;-86
2021/04/24 05:59:56;;;;;;;24.00;7.10;;;5.20;85.70;;;;;;5053272;28;20214;-86
2021/04/24 06:02:22;;;;;;;29.97;7.80;;;5.30;85.80;;;;;;5053517;28;20168;-86
2021/04/24 06:04:48;;;;;;;21.73;6.40;;;5.30;85.70;;;;;;5051944;28;20182;-86
2021/04/24 06:07:14;;;;;;;21.97;5.57;;;5.40;85.90;;;;;;5051946;28;20195;-86
2021/04/24 06:09:40;;;;;;;25.03;5.87;;;5.50;86.20;;;;;;5051874;28;20696;-86
2021/04/24 06:12:07;;;;;;;29.00;5.47;;;5.60;86.00;;;;;;5053173;28;20190;-86
2021/04/24 06:14:32;;;;;;;30.43;6.23;;;5.70;86.00;;;;;;5051734;28;20183;-86
2021/04/24 06:16:59;;;;;;;30.80;6.20;;;5.80;86.20;;;;;;5051780;28;20176;-86
2021/04/24 06:19:26;;;;;;;22.07;5.87;;;5.80;86.10;;;;;;5052942;28;20192;-86
2021/04/24 06:21:51;;;;;;;26.73;5.70;;;5.90;86.00;;;;;;5051675;28;20600;-86
2021/04/24 06:24:17;;;;;;;26.60;5.23;;;6.00;86.30;;;;;;5051665;28;20226;-86
2021/04/24 06:26:43;;;;;;;21.83;5.50;;;6.00;85.80;;;;;;5051647;28;20191;-86
2021/04/24 06:29:08;;;;;;;34.93;8.73;;;6.10;86.00;;;;;;5052802;28;20253;-86
2021/04/24 06:31:34;;;;;;;28.43;8.00;;;6.20;86.20;;;;;;5053044;28;20208;-84
2021/04/24 06:33:59;;;;;;;25.27;6.13;;;6.30;85.80;;;;;;5052934;28;20170;-85
2021/04/24 06:36:26;;;;;;;26.30;6.60;;;6.30;85.90;;;;;;5052888;28;20592;-85
2021/04/24 06:38:52;;;;;;;31.80;5.30;;;6.40;85.90;;;;;;5051534;28;20200;-85
2021/04/24 06:41:17;;;;;;;23.17;5.17;;;6.50;86.00;;;;;;5051486;28;20192;-85
2021/04/24 06:43:43;;;;;;;25.33;5.33;;;6.60;85.70;;;;;;5052001;28;20180;-86
2021/04/24 06:46:08;;;;;;;20.40;5.33;;;6.70;85.50;;;;;;5051633;28;20643;-86
2021/04/24 06:48:34;;;;;;;22.27;4.67;;;6.80;85.00;;;;;;5057013;28;20185;-85
2021/04/24 06:51:00;;;;;;;22.37;4.30;;;6.70;84.30;;;;;;5055514;28;20663;-86
2021/04/24 06:53:26;;;;;;;29.07;5.93;;;6.80;84.20;;;;;;5056863;28;20208;-85
2021/04/24 06:55:54;;;;;;;25.57;6.10;;;6.90;84.10;;;;;;5056691;28;20246;-84
2021/04/24 06:58:21;;;;;;;23.13;5.77;;;7.00;84.00;;;;;;5056632;28;20192;-85
2021/04/24 07:00:47;;;;;;;24.67;5.47;;;7.00;83.00;;;;;;5055383;28;20240;-84
2021/04/24 07:03:12;;;;;;;19.80;5.03;;;7.10;82.30;;;;;;5055715;28;20225;-85
2021/04/24 07:05:38;;;;;;;17.90;4.77;;;7.20;80.50;;;;;;5057785;28;20550;-84
2021/04/24 07:08:04;;;;;;;25.90;5.70;;;7.30;79.90;;;;;;5057867;28;20606;-84
2021/04/24 07:10:29;;;;;;;17.30;4.53;;;7.40;79.30;;;;;;5055469;28;20210;-84
2021/04/24 07:12:55;;;;;;;18.77;4.77;;;7.40;78.70;;;;;;5056793;28;20183;-84
2021/04/24 07:15:21;;;;;;;19.80;3.63;;;7.40;78.30;;;;;;5055161;28;20668;-85
2021/04/24 07:17:47;;;;;;;14.83;4.87;;;7.50;77.70;;;;;;5054936;28;20207;-86
2021/04/24 07:20:13;;;;;;;22.23;7.63;;;7.50;77.40;;;;;;5056296;28;20199;-86
2021/04/24 07:22:39;;;;;;;25.63;5.47;;;7.60;78.10;;;;;;5054921;28;20184;-86
2021/04/24 07:25:06;;;;;;;25.63;5.40;;;7.70;78.50;;;;;;5055107;28;20182;-84
2021/04/24 07:27:33;;;;;;;21.07;5.07;;;7.60;77.60;;;;;;5056437;28;20184;-85
2021/04/24 07:29:59;;;;;;;16.10;3.83;;;7.60;77.10;;;;;;5056173;28;20285;-84
2021/04/24 07:32:25;;;;;;;21.70;4.97;;;7.70;76.20;;;;;;5054905;28;20214;-84
2021/04/24 07:34:51;;;;;;;26.47;11.77;;;7.70;75.60;;;;;;5055000;28;20211;-85
2021/04/24 07:37:17;;;;;;;14.73;4.67;;;7.80;75.30;;;;;;5056373;28;20290;-85
2021/04/24 07:39:43;;;;;;;24.80;4.60;;;7.80;73.80;;;;;;5054517;28;20198;-85
2021/04/24 07:42:09;;;;;;;16.73;3.87;;;7.90;74.60;;;;;;5054613;28;20171;-85
2021/04/24 07:44:37;;;;;;;13.90;4.30;;;8.00;74.60;;;;;;5055723;28;20241;-85
2021/04/24 07:47:04;;;;;;;19.87;4.07;;;8.10;73.50;;;;;;5054340;28;20282;-84
2021/04/24 07:49:30;;;;;;;21.23;4.57;;;8.10;72.50;;;;;;5054052;28;20192;-85
2021/04/24 07:51:56;;;;;;;16.03;3.90;;;8.30;72.30;;;;;;5054319;28;20183;-85
2021/04/24 07:54:22;;;;;;;20.73;4.50;;;8.30;71.30;;;;;;5055690;28;20172;-85
2021/04/24 07:56:48;;;;;;;21.63;4.30;;;8.30;72.50;;;;;;5054236;28;20179;-84
2021/04/24 07:59:13;;;;;;;14.87;3.50;;;8.40;71.40;;;;;;5053540;28;20578;-85
2021/04/24 08:01:40;;;;;;;16.13;4.20;;;8.30;69.90;;;;;;5054206;28;20183;-84
2021/04/24 08:04:07;;;;;;;15.97;4.50;;;8.40;69.50;;;;;;5054291;28;20600;-84
2021/04/24 08:06:33;;;;;;;18.20;4.27;;;8.40;69.20;;;;;;5055844;28;20552;-84
2021/04/24 08:08:59;;;;;;;14.37;3.57;;;8.60;69.90;;;;;;5055875;28;20172;-84
2021/04/24 08:11:25;;;;;;;17.03;3.50;;;8.70;69.80;;;;;;5055655;28;20176;-85
2021/04/24 08:13:52;;;;;;;13.03;3.50;;;8.70;66.90;;;;;;5054120;28;20665;-85
2021/04/24 08:16:18;;;;;;;13.67;4.17;;;8.90;65.50;;;;;;5055238;28;20168;-85
2021/04/24 08:18:44;;;;;;;12.63;3.83;;;9.10;66.60;;;;;;5053737;28;20207;-85
2021/04/24 08:21:10;;;;;;;9.10;3.30;;;9.00;65.50;;;;;;5055742;28;20194;-84
2021/04/24 08:23:36;;;;;;;14.03;3.30;;;9.10;65.90;;;;;;5053804;28;20176;-83
2021/04/24 08:26:01;;;;;;;13.50;3.33;;;9.20;63.50;;;;;;5053854;28;20705;-85
2021/04/24 08:28:27;;;;;;;7.03;3.23;;;9.20;63.00;;;;;;5054984;28;20176;-84
2021/04/24 08:30:59;;;;;;;12.33;3.90;;;9.30;62.10;;;;;;5054957;28;20704;-85
2021/04/24 08:33:25;;;;;;;7.50;2.83;;;9.40;62.50;;;;;;5052802;28;20189;-84
2021/04/24 08:35:51;;;;;;;10.70;2.87;;;9.60;60.40;;;;;;5053634;28;20174;-84
2021/04/24 08:38:17;;;;;;;9.17;3.40;;;9.60;60.80;;;;;;5053462;28;20295;-84
2021/04/24 08:40:43;;;;;;;7.73;3.00;;;9.80;60.80;;;;;;5054621;28;20231;-84
2021/04/24 08:43:09;;;;;;;13.23;3.90;;;9.80;58.50;;;;;;5053447;28;20164;-84
2021/04/24 08:45:36;;;;;;;13.50;3.07;;;9.90;57.20;;;;;;5053360;28;20169;-85
2021/04/24 08:48:02;;;;;;;7.40;3.27;;;9.90;56.80;;;;;;5053352;28;20187;-85
2021/04/24 08:50:31;;;;;;;10.00;2.67;;;10.00;56.50;;;;;;5053166;28;20192;-85
2021/04/24 08:52:58;;;;;;;5.67;2.63;;;10.20;56.10;;;;;;5053311;28;20173;-85
2021/04/24 08:55:26;;;;;;;5.60;2.63;;;10.30;53.10;;;;;;5053158;28;20286;-84
2021/04/24 08:57:52;;;;;;;7.27;2.83;;;10.30;51.90;;;;;;5054391;28;20698;-84
2021/04/24 09:00:22;;;;;;;12.63;3.93;;;10.30;52.80;;;;;;5053091;28;20196;-84
2021/04/24 09:02:49;;;;;;;8.37;2.67;;;10.50;54.80;;;;;;5053141;28;20643;-85
2021/04/24 09:05:18;;;;;;;6.17;2.97;;;10.60;53.10;;;;;;5054477;28;20524;-85
2021/04/24 09:07:44;;;;;;;9.73;2.97;;;10.80;51.50;;;;;;5053512;28;20582;-85
2021/04/24 09:10:16;;;;;;;6.97;2.50;;;10.80;49.60;;;;;;5051813;28;20229;-85
2021/04/24 09:12:46;;;;;;;7.97;2.80;;;11.10;51.60;;;;;;5054212;28;20218;-85
2021/04/24 09:15:17;;;;;;;9.73;2.70;;;11.20;50.00;;;;;;5052891;28;20263;-85
2021/04/24 09:17:59;;;;;;;6.70;2.57;;;11.20;49.60;;;;;;5052655;28;20195;-84
2021/04/24 09:20:31;;;;;;;7.03;2.20;;;11.20;47.10;;;;;;5053976;28;20206;-85
2021/04/24 09:23:07;;;;;;;4.27;2.30;;;11.00;46.10;;;;;;5054308;28;20691;-85
2021/04/24 09:25:48;;;;;;;8.97;2.37;;;11.10;46.90;;;;;;5052669;28;20218;-85
2021/04/24 09:28:32;;;;;;;3.07;2.07;;;11.30;48.80;;;;;;5052746;28;20179;-85
2021/04/24 09:30:59;;;;;;;4.20;1.87;;;11.60;45.70;;;;;;5052530;28;20203;-85
2021/04/24 09:33:34;;;;;;;4.60;2.00;;;11.70;44.50;;;;;;5053381;28;20645;-88
2021/04/24 09:36:00;;;;;;;4.63;2.00;;;11.80;44.00;;;;;;5054974;28;20647;-88
2021/04/24 09:38:32;;;;;;;4.73;2.00;;;11.90;47.20;;;;;;5053001;28;20200;-88
2021/04/24 09:41:09;;;;;;;6.23;2.20;;;12.00;42.90;;;;;;5052604;28;20681;-87
2021/04/24 09:43:56;;;;;;;5.20;1.80;;;11.70;42.20;;;;;;5053078;28;20178;-86
2021/04/24 09:46:26;;;;;;;7.27;2.00;;;11.70;43.30;;;;;;5052726;28;20168;-87
2021/04/24 09:49:18;;;;;;;7.57;1.87;;;11.90;40.90;;;;;;5053180;28;20168;-88
2021/04/24 09:51:50;;;;;;;3.53;1.70;;;12.00;40.80;;;;;;5052580;28;20176;-87
2021/04/24 09:54:17;;;;;;;3.10;1.70;;;11.70;40.40;;;;;;5054057;28;20251;-87
2021/04/24 09:56:57;;;;;;;3.73;1.80;;;11.60;39.60;;;;;;5052572;28;20186;-87
2021/04/24 09:59:23;;;;;;;3.97;1.73;;;11.70;42.60;;;;;;5052460;28;20204;-87
2021/04/24 10:02:04;;;;;;;8.70;1.70;;;12.00;41.30;;;;;;5052210;28;20226;-87
2021/04/24 10:04:31;;;;;;;4.40;1.60;;;12.10;40.90;;;;;;5053730;28;20206;-89
2021/04/24 10:06:57;;;;;;;6.40;1.70;;;12.30;39.70;;;;;;5053957;28;20226;-89
2021/04/24 10:09:25;;;;;;;4.70;1.50;;;12.30;38.60;;;;;;5052278;28;20192;-89
2021/04/24 10:12:03;;;;;;;5.97;1.60;;;12.50;38.90;;;;;;5053071;28;20180;-89
2021/04/24 10:14:38;;;;;;;3.93;1.63;;;12.60;38.70;;;;;;5053590;28;20156;-89
2021/04/24 10:17:09;;;;;;;5.47;1.70;;;12.80;37.30;;;;;;5052270;28;20592;-88
2021/04/24 10:19:36;;;;;;;4.07;1.63;;;12.70;37.70;;;;;;5053816;28;20533;-88
2021/04/24 10:22:07;;;;;;;5.20;1.73;;;12.60;36.70;;;;;;5051888;28;20255;-88
2021/04/24 10:24:33;;;;;;;5.57;2.60;;;12.60;37.30;;;;;;5053049;28;20534;-89
2021/04/24 10:27:00;;;;;;;2.20;1.50;;;12.60;37.50;;;;;;5052267;28;20262;-89
2021/04/24 10:29:26;;;;;;;1.80;1.43;;;12.80;38.00;;;;;;5052135;28;20219;-88
2021/04/24 10:31:53;;;;;;;3.03;1.70;;;13.10;38.30;;;;;;5052174;28;20263;-89
2021/04/24 10:34:19;;;;;;;4.03;1.70;;;13.10;37.50;;;;;;5087469;22;20228;-88
2021/04/24 10:36:46;;;;;;;3.67;1.70;;;13.20;37.30;;;;;;5052094;28;20197;-88
2021/04/24 10:39:17;;;;;;;4.00;1.90;;;13.30;36.60;;;;;;5053133;28;20273;-88
2021/04/24 10:41:55;;;;;;;14.27;2.13;;;13.50;38.00;;;;;;5052004;28;20160;-88
2021/04/24 10:44:25;;;;;;;5.87;1.90;;;13.60;37.80;;;;;;5052163;28;20668;-88
2021/04/24 10:46:57;;;;;;;5.87;1.90;;;13.80;35.40;;;;;;5053249;28;20736;-88
2021/04/24 10:49:30;;;;;;;8.17;1.80;;;13.70;36.90;;;;;;5052303;28;20213;-88
2021/04/24 10:52:06;;;;;;;4.63;1.87;;;13.70;34.50;;;;;;5052066;28;20251;-88
2021/04/24 10:54:40;;;;;;;7.13;1.43;;;13.80;34.40;;;;;;5051978;28;20321;-89
2021/04/24 10:57:36;;;;;;;3.80;1.63;;;13.90;35.20;;;;;;5053271;28;20171;-88
2021/04/24 11:00:03;;;;;;;2.67;1.90;;;13.60;34.30;;;;;;5052429;28;20218;-89
2021/04/24 11:02:59;;;;;;;3.80;1.57;;;13.80;37.10;;;;;;5055459;28;20212;-87
2021/04/24 11:05:30;;;;;;;6.47;2.03;;;13.60;35.80;;;;;;5047187;28;20211;-88
2021/04/24 11:08:08;;;;;;;8.67;2.40;;;14.00;35.70;;;;;;5053099;28;20240;-87
2021/04/24 11:10:42;;;;;;;2.90;1.50;;;14.10;33.40;;;;;;5051772;28;20641;-87
2021/04/24 11:13:10;;;;;;;5.30;1.90;;;13.70;34.50;;;;;;5052736;28;20160;-87
2021/04/24 11:15:36;;;;;;;2.70;1.60;;;13.60;33.60;;;;;;5052619;28;20282;-87
2021/04/24 11:18:04;;;;;;;2.80;1.30;;;13.90;36.10;;;;;;5051189;28;20196;-86
2021/04/24 11:20:56;;;;;;;4.27;1.17;;;13.70;33.20;;;;;;5051245;28;20180;-86
2021/04/24 11:23:41;;;;;;;3.53;1.60;;;14.10;36.00;;;;;;5051262;28;20259;-87
2021/04/24 11:26:11;;;;;;;2.87;1.30;;;14.60;34.50;;;;;;5053128;28;20148;-87
2021/04/24 11:29:02;;;;;;;2.30;1.30;;;15.10;34.40;;;;;;5052523;28;20417;-88
2021/04/24 11:31:42;;;;;;;2.17;1.50;;;15.10;34.50;;;;;;5052530;28;20184;-88
2021/04/24 11:34:31;;;;;;;3.63;1.57;;;15.00;34.50;;;;;;5052707;28;20214;-88
2021/04/24 11:37:18;;;;;;;2.83;1.77;;;14.90;35.60;;;;;;5056391;28;20582;-88
2021/04/24 11:40:02;;;;;;;4.23;1.80;;;14.90;34.30;;;;;;5056132;28;20168;-88
2021/04/24 11:42:30;;;;;;;3.10;1.97;;;14.60;33.10;;;;;;5054804;28;20177;-88
2021/04/24 11:44:56;;;;;;;3.00;1.50;;;14.50;34.20;;;;;;5054974;28;20199;-88
2021/04/24 11:47:40;;;;;;;4.17;1.83;;;15.00;34.20;;;;;;5054899;28;20176;-88
2021/04/24 11:50:13;;;;;;;3.33;1.60;;;14.80;33.60;;;;;;5055405;28;20176;-88
2021/04/24 11:52:39;;;;;;;2.80;1.50;;;15.10;31.90;;;;;;5054826;28;20259;-88
2021/04/24 11:55:06;;;;;;;2.73;1.73;;;14.60;33.60;;;;;;5054591;28;20277;-88
2021/04/24 11:57:31;;;;;;;2.33;1.70;;;13.90;32.40;;;;;;5054430;28;20614;-87
2021/04/24 11:59:57;;;;;;;4.83;1.80;;;13.00;35.80;;;;;;5054544;28;20172;-87
2021/04/24 12:02:27;;;;;;;2.40;1.50;;;13.80;34.80;;;;;;5054412;28;20546;-87
2021/04/24 12:05:00;;;;;;;2.33;1.80;;;14.30;34.00;;;;;;5055844;28;20259;-87
2021/04/24 12:07:27;;;;;;;2.50;1.73;;;14.80;33.90;;;;;;5055551;28;20153;-87
2021/04/24 12:09:59;;;;;;;3.83;1.60;;;14.50;34.20;;;;;;5054271;28;20226;-87
2021/04/24 12:12:55;;;;;;;6.40;1.90;;;14.80;34.20;;;;;;5054211;28;20168;-87
2021/04/24 12:15:25;;;;;;;3.67;1.70;;;14.30;32.40;;;;;;5046988;28;20617;-87
2021/04/24 12:18:02;;;;;;;2.47;1.50;;;13.70;34.40;;;;;;5054129;28;20677;-87
2021/04/24 12:20:39;;;;;;;2.40;1.63;;;14.00;34.20;;;;;;5054166;28;20164;-87
2021/04/24 12:23:07;;;;;;;4.80;2.10;;;13.80;33.00;;;;;;5054106;28;20155;-87
2021/04/24 12:25:38;;;;;;;2.93;2.00;;;14.30;35.20;;;;;;5055351;28;20545;-87
2021/04/24 12:28:06;;;;;;;4.40;1.83;;;14.30;33.10;;;;;;5053846;28;20233;-87
2021/04/24 12:30:35;;;;;;;2.37;1.63;;;14.40;35.10;;;;;;5053883;28;20222;-87
2021/04/24 12:33:03;;;;;;;4.20;2.00;;;14.50;33.40;;;;;;5053835;28;20207;-88
2021/04/24 12:35:39;;;;;;;2.00;1.23;;;14.30;33.60;;;;;;5053704;28;20215;-87
2021/04/24 12:38:12;;;;;;;4.00;1.70;;;14.20;35.30;;;;;;5055177;28;20192;-87
2021/04/24 12:40:45;;;;;;;2.70;1.70;;;14.30;34.10;;;;;;5055012;28;20251;-88
2021/04/24 12:43:46;;;;;;;3.97;1.70;;;14.70;34.60;;;;;;5055218;28;20193;-87
2021/04/24 12:46:12;;;;;;;3.63;2.03;;;14.90;33.90;;;;;;5053573;28;20168;-87
2021/04/24 12:48:45;;;;;;;3.30;1.67;;;14.70;33.10;;;;;;5053556;28;20180;-87
2021/04/24 12:51:14;;;;;;;4.23;1.93;;;14.80;34.20;;;;;;5054434;28;20717;-87